Aquis Perla — 3FKF3 — position and weather

sailwx.info

Track history (hours):
 
Tides and Currents Weather Stations Pressure Air Temp Water Temp Dewpoint Dewpoint Depression Visibility Wind Speed Wind Dir Waves Ship Positions

Aquis Perla

Last reported at 2018-Feb-13 07:47 UTC. Time now 2018-Feb-19 09:55 UTC.
Position N 32°50' E 034°60'.

Length 113 m; draft 8.3 m.

Type: Cargo ship. MMSI: 352187000.

Date/timePositionNaut miles runAvg speedWind from/ knotsBaromVisibWave heightAir tempDewpointWater temp
2018-Feb-13 07:47N 32°50' E 034°60'0 0.0
2018-Feb-13 07:23N 32°50' E 034°60'0 0.0
2018-Feb-11 09:16N 32°51' E 034°60'0 0.0
2018-Feb-11 08:52N 32°51' E 034°60'0 0.0
2018-Feb-11 08:28N 32°51' E 034°60'0 0.0
2018-Feb-11 07:58N 32°51' E 034°60'  
2018-Feb-08 19:00N 32°56' E 034°35'  
2018-Feb-05 04:51N 34°20' E 034°54'1213.0
2018-Feb-05 03:55N 34°09' E 034°51'813.0
2018-Feb-05 03:16N 34°00' E 034°49'312.5
2018-Feb-05 03:00N 33°57' E 034°48'713.1
2018-Feb-05 02:30N 33°51' E 034°46'813.6
2018-Feb-05 01:57N 33°43' E 034°44'613.4
2018-Feb-05 01:28N 33°37' E 034°42'713.5
2018-Feb-05 00:58N 33°31' E 034°40'713.7
2018-Feb-05 00:28N 33°24' E 034°38'713.9
2018-Feb-04 23:56N 33°17' E 034°36'713.0
2018-Feb-04 23:26N 33°10' E 034°35'613.4
2018-Feb-04 23:00N 33°05' E 034°33'710.9
2018-Feb-04 22:23N 32°58' E 034°36'613.9
2018-Feb-04 21:58N 32°56' E 034°43'613.5
2018-Feb-04 21:30N 32°55' E 034°50'  
Track history (hours):
 
Tides and Currents Weather Stations Pressure Air Temp Water Temp Dewpoint Dewpoint Depression Visibility Wind Speed Wind Dir Waves Ship Positions

Aquis Perla

Last reported at 2018-Feb-13 07:47 UTC. Time now 2018-Feb-19 09:55 UTC.
Position N 32°50' E 034°60'.

Length 113 m; draft 8.3 m.

Type: Cargo ship. MMSI: 352187000.

Date/timePositionNaut miles runAvg speedWind from/ knotsBaromVisibWave heightAir tempDewpointWater temp
2018-Feb-13 07:47N 32°50' E 034°60'0 0.0
2018-Feb-13 07:23N 32°50' E 034°60'0 0.0
2018-Feb-11 09:16N 32°51' E 034°60'0 0.0
2018-Feb-11 08:52N 32°51' E 034°60'0 0.0
2018-Feb-11 08:28N 32°51' E 034°60'0 0.0
2018-Feb-11 07:58N 32°51' E 034°60'  
2018-Feb-08 19:00N 32°56' E 034°35'  
2018-Feb-05 04:51N 34°20' E 034°54'1213.0
2018-Feb-05 03:55N 34°09' E 034°51'813.0
2018-Feb-05 03:16N 34°00' E 034°49'312.5
2018-Feb-05 03:00N 33°57' E 034°48'713.1
2018-Feb-05 02:30N 33°51' E 034°46'813.6
2018-Feb-05 01:57N 33°43' E 034°44'613.4
2018-Feb-05 01:28N 33°37' E 034°42'713.5
2018-Feb-05 00:58N 33°31' E 034°40'713.7
2018-Feb-05 00:28N 33°24' E 034°38'713.9
2018-Feb-04 23:56N 33°17' E 034°36'713.0
2018-Feb-04 23:26N 33°10' E 034°35'613.4
2018-Feb-04 23:00N 33°05' E 034°33'710.9
2018-Feb-04 22:23N 32°58' E 034°36'613.9
2018-Feb-04 21:58N 32°56' E 034°43'613.5
2018-Feb-04 21:30N 32°55' E 034°50'  

Dump ship's entire track history